createdAt,value
2023-01-11T00:02:10.899Z,99926.13
2023-01-11T00:04:42.632Z,99924.89
2023-01-11T00:07:16.594Z,99923.84
2023-01-11T00:09:48.245Z,99916.20
2023-01-11T00:12:19.847Z,99912.20
2023-01-11T00:14:56.833Z,99909.43
2023-01-11T00:17:29.655Z,99906.13
2023-01-11T00:20:01.329Z,99904.23
2023-01-11T00:22:32.933Z,99906.50
2023-01-11T00:25:11.845Z,99904.13
2023-01-11T00:27:43.619Z,99903.64
2023-01-11T00:30:16.942Z,99900.91
2023-01-11T00:32:48.585Z,99895.41
2023-01-11T00:35:20.220Z,99895.15
2023-01-11T00:37:54.652Z,99894.68
2023-01-11T00:40:27.243Z,99896.17
2023-01-11T00:43:37.339Z,99896.79
2023-01-11T00:46:28.260Z,99903.99
2023-01-11T00:48:59.940Z,99905.98
2023-01-11T00:51:31.524Z,99911.05
2023-01-11T00:54:03.238Z,99915.05
2023-01-11T00:56:36.065Z,99915.06
2023-01-11T00:59:09.962Z,99919.05
2023-01-11T01:01:41.631Z,99918.88
2023-01-11T01:04:13.332Z,99917.15
2023-01-11T01:06:45.056Z,99918.89
2023-01-11T01:09:18.208Z,99919.27
2023-01-11T01:11:49.935Z,99917.55
2023-01-11T01:14:26.712Z,99923.12
2023-01-11T01:17:08.061Z,99921.71
2023-01-11T01:19:39.801Z,99918.60
2023-01-11T01:22:11.429Z,99917.91
2023-01-11T01:24:42.980Z,99914.43
2023-01-11T01:27:17.867Z,99917.73
2023-01-11T01:29:52.517Z,99916.17
2023-01-11T01:32:24.167Z,99916.00
2023-01-11T01:34:56.099Z,99910.80
2023-01-11T01:37:30.506Z,99910.98
2023-01-11T01:40:02.172Z,99908.56
2023-01-11T01:42:33.787Z,99905.61
2023-01-11T01:45:23.281Z,99900.59
2023-01-11T01:48:02.543Z,99895.38
2023-01-11T01:50:54.961Z,99890.75
2023-01-11T01:53:35.961Z,99888.38
2023-01-11T01:56:13.971Z,99880.63
2023-01-11T01:58:54.978Z,99885.55
2023-01-11T02:01:46.322Z,99883.49
2023-01-11T02:04:20.862Z,99878.01
2023-01-11T02:06:58.173Z,99879.09
2023-01-11T02:09:39.044Z,99871.86
2023-01-11T02:12:11.678Z,99875.90
2023-01-11T02:14:44.985Z,99870.56
2023-01-11T02:17:16.552Z,99868.14
2023-01-11T02:19:57.463Z,99862.94
2023-01-11T02:22:57.233Z,99858.27
2023-01-11T02:25:50.328Z,99852.92
2023-01-11T02:28:49.852Z,99851.57
2023-01-11T02:31:33.740Z,99843.45
2023-01-11T02:34:23.077Z,99843.83
2023-01-11T02:37:05.662Z,99845.23
2023-01-11T02:40:23.052Z,99837.61
2023-01-11T02:43:33.490Z,99830.16
2023-01-11T02:46:11.016Z,99828.96
2023-01-11T02:48:59.973Z,99820.62
2023-01-11T02:51:47.397Z,99823.20
2023-01-11T02:54:21.589Z,99822.00
2023-01-11T02:56:59.066Z,99813.20
2023-01-11T02:59:33.195Z,99815.44
2023-01-11T03:02:04.804Z,99809.01
2023-01-11T03:04:37.933Z,99806.40
2023-01-11T03:07:46.593Z,99808.14
2023-01-11T03:10:30.273Z,99806.41
2023-01-11T03:13:07.795Z,99800.88
2023-01-11T03:15:57.332Z,99798.45
2023-01-11T03:18:34.877Z,99797.77
2023-01-11T03:21:29.173Z,99789.48
2023-01-11T03:24:34.461Z,99784.30
2023-01-11T03:27:05.965Z,99778.25
2023-01-11T03:30:13.228Z,99772.02
2023-01-11T03:33:01.369Z,99771.52
2023-01-11T03:35:53.511Z,99770.30
2023-01-11T03:38:30.748Z,99769.27
2023-01-11T03:41:08.307Z,99766.50
2023-01-11T03:43:44.211Z,99762.05
2023-01-11T03:46:31.469Z,99756.70
2023-01-11T03:49:09.387Z,99752.39
2023-01-11T03:51:44.284Z,99747.19
2023-01-11T03:54:22.050Z,99744.77
2023-01-11T03:57:04.603Z,99736.77
2023-01-11T03:59:36.791Z,99723.45
2023-01-11T04:02:19.730Z,99713.42
2023-01-11T04:04:51.405Z,99707.90
2023-01-11T04:07:23.046Z,99708.27
2023-01-11T04:09:54.672Z,99704.63
2023-01-11T04:12:26.892Z,99704.13
2023-01-11T04:15:01.624Z,99701.70
2023-01-11T04:17:33.611Z,99699.61
2023-01-11T04:20:06.037Z,99693.39
2023-01-11T04:22:38.655Z,99691.66
2023-01-11T04:25:10.384Z,99687.67
2023-01-11T04:27:42.018Z,99681.45
2023-01-11T04:30:13.854Z,99679.75
2023-01-11T04:32:47.407Z,99682.70
2023-01-11T04:35:18.926Z,99680.80
2023-01-11T04:37:56.366Z,99678.56
2023-01-11T04:40:28.360Z,99680.98
2023-01-11T04:43:02.457Z,99679.96
2023-01-11T04:45:34.231Z,99676.33
2023-01-11T04:48:06.150Z,99672.34
2023-01-11T04:50:38.214Z,99668.16
2023-01-11T04:53:09.865Z,99665.56
2023-01-11T04:55:41.512Z,99661.40
2023-01-11T04:58:15.899Z,99655.65
2023-01-11T05:00:47.489Z,99652.87
2023-01-11T05:03:23.719Z,99643.10
2023-01-11T05:06:00.800Z,99647.70
2023-01-11T05:08:32.932Z,99638.46
2023-01-11T05:11:07.764Z,99636.01
2023-01-11T05:13:41.976Z,99630.25
2023-01-11T05:16:24.420Z,99634.18
2023-01-11T05:18:59.024Z,99635.52
2023-01-11T05:21:37.155Z,99634.44
2023-01-11T05:24:12.998Z,99621.71
2023-01-11T05:26:46.221Z,99624.23
2023-01-11T05:29:21.563Z,99620.85
2023-01-11T05:31:53.381Z,99622.73
2023-01-11T05:34:25.501Z,99620.23
2023-01-11T05:37:01.581Z,99618.25
2023-01-11T05:39:33.217Z,99610.42
2023-01-11T05:42:05.049Z,99606.93
2023-01-11T05:44:58.003Z,99602.09
2023-01-11T05:47:29.819Z,99601.23
2023-01-11T05:50:01.530Z,99597.42
2023-01-11T05:52:33.138Z,99597.44
2023-01-11T05:55:05.569Z,99590.48
2023-01-11T05:57:37.334Z,99590.48
2023-01-11T06:00:10.160Z,99587.16
2023-01-11T06:02:45.422Z,99575.33
2023-01-11T06:05:17.449Z,99569.74
2023-01-11T06:07:49.286Z,99567.45
2023-01-11T06:10:21.050Z,99561.38
2023-01-11T06:13:13.092Z,99560.14
2023-01-11T06:15:45.123Z,99551.44
2023-01-11T06:18:16.978Z,99557.09
2023-01-11T06:20:53.279Z,99556.70
2023-01-11T06:23:25.707Z,99552.52
2023-01-11T06:25:57.433Z,99554.05
2023-01-11T06:28:29.231Z,99559.39
2023-01-11T06:31:01.781Z,99556.58
2023-01-11T06:33:37.117Z,99554.14
2023-01-11T06:36:11.821Z,99555.83
2023-01-11T06:38:44.156Z,99555.11
2023-01-11T06:41:18.991Z,99551.44
2023-01-11T06:43:53.623Z,99548.62
2023-01-11T06:46:27.502Z,99545.25
2023-01-11T06:49:03.159Z,99543.79
2023-01-11T06:51:34.974Z,99541.29
2023-01-11T06:54:06.684Z,99541.36
2023-01-11T06:56:38.549Z,99537.45
2023-01-11T06:59:10.291Z,99537.32
2023-01-11T07:01:43.555Z,99533.79
2023-01-11T07:04:15.908Z,99534.91
2023-01-11T07:06:54.439Z,99533.17
2023-01-11T07:09:28.544Z,99534.21
2023-01-11T07:12:00.286Z,99540.45
2023-01-11T07:14:32.005Z,99535.02
2023-01-11T07:17:03.618Z,99536.20
2023-01-11T07:19:35.413Z,99538.21
2023-01-11T07:22:07.271Z,99540.61
2023-01-11T07:24:39.079Z,99541.77
2023-01-11T07:27:10.807Z,99548.84
2023-01-11T07:29:42.751Z,99549.17
2023-01-11T07:32:14.749Z,99549.80
2023-01-11T07:34:46.982Z,99549.77
2023-01-11T07:37:28.292Z,99544.84
2023-01-11T07:40:01.014Z,99542.19
2023-01-11T07:42:51.896Z,99541.98
2023-01-11T07:45:37.384Z,99541.74
2023-01-11T07:48:25.288Z,99532.99
2023-01-11T07:50:57.386Z,99527.60
2023-01-11T07:53:29.084Z,99526.33
2023-01-11T07:56:00.804Z,99524.87
2023-01-11T07:58:32.839Z,99524.27
2023-01-11T08:01:06.111Z,99514.31
2023-01-11T08:03:38.004Z,99507.64
2023-01-11T08:06:09.819Z,99506.04
2023-01-11T08:08:42.637Z,99502.66
2023-01-11T08:11:32.997Z,99503.32
2023-01-11T08:14:29.403Z,99498.57
2023-01-11T08:17:01.215Z,99500.98
2023-01-11T08:19:36.022Z,99496.59
2023-01-11T08:22:09.268Z,99496.79
2023-01-11T08:24:41.188Z,99495.35
2023-01-11T08:27:13.300Z,99492.15
2023-01-11T08:29:45.158Z,99492.34
2023-01-11T08:32:16.968Z,99496.64
2023-01-11T08:34:48.767Z,99489.49
2023-01-11T08:37:20.518Z,99498.30
2023-01-11T08:39:52.164Z,99502.13
2023-01-11T08:42:24.302Z,99504.88
2023-01-11T08:44:56.048Z,99498.77
2023-01-11T08:47:28.937Z,99491.56
2023-01-11T08:50:01.250Z,99494.27
2023-01-11T08:52:35.941Z,99496.00
2023-01-11T08:55:08.239Z,99493.34
2023-01-11T08:57:40.057Z,99489.16
2023-01-11T09:00:13.293Z,99491.72
2023-01-11T09:02:46.163Z,99484.27
2023-01-11T09:05:18.427Z,99486.61
2023-01-11T09:07:50.559Z,99485.05
2023-01-11T09:10:26.928Z,99491.84
2023-01-11T09:12:59.467Z,99487.11
2023-01-11T09:15:31.583Z,99493.86
2023-01-11T09:18:03.525Z,99491.38
2023-01-11T09:20:35.405Z,99483.23
2023-01-11T09:23:07.477Z,99478.70
2023-01-11T09:25:39.236Z,99472.62
2023-01-11T09:28:11.086Z,99472.90
2023-01-11T09:30:42.803Z,99465.72
2023-01-11T09:33:14.636Z,99459.73
2023-01-11T09:35:47.173Z,99451.30
2023-01-11T09:38:19.764Z,99455.32
2023-01-11T09:41:06.462Z,99445.02
2023-01-11T09:43:54.454Z,99448.11
2023-01-11T09:46:29.428Z,99437.61
2023-01-11T09:49:04.235Z,99435.48
2023-01-11T09:51:40.144Z,99428.02
2023-01-11T09:54:21.193Z,99430.16
2023-01-11T09:57:31.078Z,99423.88
2023-01-11T10:00:28.006Z,99421.39
2023-01-11T10:03:22.386Z,99422.04
2023-01-11T10:06:07.360Z,99411.64
2023-01-11T10:18:29.107Z,99407.39
2023-01-11T10:18:39.624Z,99405.23
2023-01-11T10:21:31.357Z,99401.13
2023-01-11T10:24:12.724Z,99391.38
2023-01-11T10:26:44.897Z,99380.39
2023-01-11T10:29:40.380Z,99376.73
2023-01-11T10:32:34.785Z,99377.81
2023-01-11T10:35:59.214Z,99381.00
2023-01-11T10:38:52.036Z,99379.13
2023-01-11T10:41:30.122Z,99380.31
2023-01-11T10:44:10.965Z,99371.19
2023-01-11T10:46:48.324Z,99369.11
2023-01-11T10:49:30.534Z,99358.61
2023-01-11T10:52:28.618Z,99356.10
2023-01-11T10:55:03.155Z,99347.44
2023-01-11T10:58:01.925Z,99339.84
2023-01-11T11:01:08.613Z,99344.02
2023-01-11T11:04:13.881Z,99339.20
2023-01-11T11:07:10.030Z,99330.11
2023-01-11T11:09:47.666Z,99325.38
2023-01-11T11:12:27.245Z,99321.05
2023-01-11T11:15:12.627Z,99315.38
2023-01-11T11:17:51.378Z,99316.08
2023-01-11T11:20:31.703Z,99312.51
2023-01-11T11:23:03.466Z,99308.48
2023-01-11T11:25:43.324Z,99307.12
2023-01-11T11:28:15.108Z,99299.77
2023-01-11T11:30:47.667Z,99299.05
2023-01-11T11:33:26.167Z,99297.96
2023-01-11T11:36:01.539Z,99285.80
2023-01-11T11:38:36.722Z,99278.88
2023-01-11T11:41:12.730Z,99274.19
2023-01-11T11:43:46.827Z,99271.06
2023-01-11T11:46:27.791Z,99269.80
2023-01-11T11:49:08.905Z,99264.93
2023-01-11T11:51:42.913Z,99261.13
2023-01-11T11:54:41.763Z,99255.41
2023-01-11T11:57:21.595Z,99248.98
2023-01-11T12:00:07.535Z,99244.92
2023-01-11T12:02:48.572Z,99245.66
2023-01-11T12:05:20.493Z,99243.36
2023-01-11T12:07:55.477Z,99242.14
2023-01-11T12:10:30.311Z,99236.44
2023-01-11T12:13:03.909Z,99230.12
2023-01-11T12:15:35.710Z,99229.92
2023-01-11T12:18:50.985Z,99226.64
2023-01-11T12:21:25.686Z,99222.52
2023-01-11T12:24:13.304Z,99220.80
2023-01-11T12:27:06.029Z,99222.20
2023-01-11T12:29:49.544Z,99210.68
2023-01-11T12:32:30.758Z,99206.20
2023-01-11T12:35:50.843Z,99205.33
2023-01-11T12:38:24.607Z,99202.88
2023-01-11T12:41:19.151Z,99198.91
2023-01-11T12:44:14.014Z,99198.55
2023-01-11T12:46:57.881Z,99196.16
2023-01-11T12:49:48.407Z,99199.48
2023-01-11T12:52:41.828Z,99199.86
2023-01-11T12:55:15.457Z,99202.33
2023-01-11T12:57:54.140Z,99205.11
2023-01-11T13:00:37.185Z,99200.98
2023-01-11T13:03:29.775Z,99205.38
2023-01-11T13:06:34.620Z,99196.73
2023-01-11T13:09:45.958Z,99194.64
2023-01-11T13:12:37.063Z,99188.97
2023-01-11T13:15:34.260Z,99188.86
2023-01-11T13:18:31.576Z,99188.35
2023-01-11T13:21:44.742Z,99184.20
2023-01-11T13:24:33.596Z,99190.84
2023-01-11T13:27:12.077Z,99186.90
2023-01-11T13:29:47.623Z,99185.35
2023-01-11T13:32:26.343Z,99186.63
2023-01-11T13:35:07.424Z,99179.04
2023-01-11T13:37:53.766Z,99176.27
2023-01-11T13:40:33.085Z,99171.19
2023-01-11T13:43:21.297Z,99171.73
2023-01-11T13:46:06.289Z,99169.83
2023-01-11T13:48:45.063Z,99169.45
2023-01-11T13:51:19.508Z,99164.00
2023-01-11T13:54:04.486Z,99166.25
2023-01-11T13:56:46.492Z,99157.04
2023-01-11T13:59:47.234Z,99158.25
2023-01-11T14:02:38.151Z,99156.72
2023-01-11T14:05:21.556Z,99157.98
2023-01-11T14:08:03.074Z,99159.71
2023-01-11T14:11:04.191Z,99156.25
2023-01-11T14:14:13.407Z,99149.95
2023-01-11T14:17:24.349Z,99147.52
2023-01-11T14:20:08.005Z,99148.42
2023-01-11T14:22:45.843Z,99147.38
2023-01-11T14:25:33.515Z,99145.30
2023-01-11T14:28:26.767Z,99143.39
2023-01-11T14:31:14.720Z,99148.10
2023-01-11T14:34:09.895Z,99151.08
2023-01-11T14:36:56.994Z,99151.11
2023-01-11T14:39:41.557Z,99142.75
2023-01-11T14:42:44.139Z,99141.34
2023-01-11T14:45:29.399Z,99139.10
2023-01-11T14:48:25.427Z,99137.02
2023-01-11T14:51:15.928Z,99137.56
2023-01-11T14:53:58.264Z,99137.75
2023-01-11T14:56:57.132Z,99128.14
2023-01-11T14:59:32.048Z,99129.19
2023-01-11T15:02:03.897Z,99133.54
2023-01-11T15:04:55.122Z,99140.50
2023-01-11T15:07:29.828Z,99139.98
2023-01-11T15:10:22.437Z,99136.32
2023-01-11T15:12:58.428Z,99129.89
2023-01-11T15:15:49.603Z,99124.13
2023-01-11T15:18:24.671Z,99118.55
2023-01-11T15:21:06.378Z,99116.27
2023-01-11T15:23:49.434Z,99117.33
2023-01-11T15:26:24.113Z,99113.68
2023-01-11T15:29:02.712Z,99115.05
2023-01-11T15:32:09.583Z,99111.04
2023-01-11T15:34:44.643Z,99109.45
2023-01-11T15:37:39.627Z,99110.13
2023-01-11T15:40:25.212Z,99111.70
2023-01-11T15:43:21.775Z,99113.09
2023-01-11T15:46:31.213Z,99112.71
2023-01-11T15:49:21.805Z,99104.50
2023-01-11T15:51:53.359Z,99100.50
2023-01-11T15:54:24.969Z,99098.85
2023-01-11T15:57:18.396Z,99095.87
2023-01-11T15:59:59.415Z,99097.42
2023-01-11T16:02:49.465Z,99096.86
2023-01-11T16:05:27.682Z,99096.84
2023-01-11T16:08:23.056Z,99099.60
2023-01-11T16:11:16.702Z,99101.64
2023-01-11T16:17:01.067Z,99097.17
2023-01-11T16:19:35.876Z,99097.05
2023-01-11T16:22:19.782Z,99099.14
2023-01-11T16:24:57.145Z,99100.20
2023-01-11T16:27:33.160Z,99098.98
2023-01-11T16:30:05.553Z,99092.71
2023-01-11T16:32:37.751Z,99091.20
2023-01-11T16:35:25.013Z,99099.70
2023-01-11T16:37:59.388Z,99095.87
2023-01-11T16:40:37.961Z,99090.69
2023-01-11T16:43:16.035Z,99089.46
2023-01-11T16:45:50.281Z,99087.38
2023-01-11T16:48:29.537Z,99091.55
2023-01-11T16:51:09.299Z,99082.81
2023-01-11T16:53:42.811Z,99093.98
2023-01-11T16:56:20.299Z,99099.72
2023-01-11T16:59:15.716Z,99100.02
2023-01-11T17:01:54.048Z,99095.91
2023-01-11T17:04:29.776Z,99098.81
2023-01-11T17:07:22.099Z,99098.64
2023-01-11T17:09:54.082Z,99103.16
2023-01-11T17:12:27.593Z,99106.80
2023-01-11T17:15:59.996Z,99110.52
2023-01-11T17:18:31.392Z,99110.70
2023-01-11T17:21:05.384Z,99106.48
2023-01-11T17:23:44.159Z,99111.00
2023-01-11T17:26:22.030Z,99110.47
2023-01-11T17:36:11.873Z,99110.91
2023-01-11T17:38:45.242Z,99110.24
2023-01-11T17:41:36.634Z,99114.25
2023-01-11T17:44:35.390Z,99112.80
2023-01-11T17:47:11.062Z,99105.89
2023-01-11T17:49:44.796Z,99109.48
2023-01-11T17:52:24.669Z,99108.27
2023-01-11T17:55:17.259Z,99112.45
2023-01-11T17:58:19.185Z,99109.48
2023-01-11T18:01:16.410Z,99110.36
2023-01-11T18:03:58.690Z,99111.80
2023-01-11T18:06:45.118Z,99110.30
2023-01-11T18:09:31.038Z,99106.39
2023-01-11T18:12:18.338Z,99106.30
2023-01-11T18:15:02.849Z,99103.59
2023-01-11T18:17:36.247Z,99105.41
2023-01-11T18:20:11.020Z,99108.12
2023-01-11T18:22:56.188Z,99102.48
2023-01-11T18:25:30.450Z,99103.91
2023-01-11T18:28:27.651Z,99096.34
2023-01-11T18:31:02.039Z,99098.17
2023-01-11T18:33:44.267Z,99091.13
2023-01-11T18:36:22.875Z,99096.25
2023-01-11T18:38:54.559Z,99099.44
2023-01-11T18:41:44.891Z,99102.42
2023-01-11T18:44:16.685Z,99101.11
2023-01-11T18:46:48.343Z,99103.78
2023-01-11T18:49:20.417Z,99105.38
2023-01-11T18:51:52.160Z,99106.10
2023-01-11T18:54:23.780Z,99104.74
2023-01-11T18:56:55.379Z,99103.39
2023-01-11T18:59:27.018Z,99104.45
2023-01-11T19:02:16.628Z,99099.43
2023-01-11T19:04:49.682Z,99096.33
2023-01-11T19:07:23.120Z,99097.94
2023-01-11T19:09:55.083Z,99093.47
2023-01-11T19:12:27.270Z,99093.85
2023-01-11T19:14:59.411Z,99092.48
2023-01-11T19:17:31.697Z,99090.58
2023-01-11T19:20:04.491Z,99094.09
2023-01-11T19:22:37.556Z,99087.67
2023-01-11T19:25:09.952Z,99085.78
2023-01-11T19:27:41.560Z,99090.15
2023-01-11T19:30:13.652Z,99091.20
2023-01-11T19:32:51.754Z,99092.80
2023-01-11T19:35:26.912Z,99092.63
2023-01-11T19:37:58.549Z,99091.25
2023-01-11T19:40:33.078Z,99086.73
2023-01-11T19:43:04.736Z,99091.44
2023-01-11T19:45:37.249Z,99095.77
2023-01-11T19:48:08.848Z,99091.96
2023-01-11T19:50:42.914Z,99093.52
2023-01-11T19:53:14.533Z,99090.60
2023-01-11T19:55:46.242Z,99095.09
2023-01-11T19:58:17.921Z,99092.65
2023-01-11T20:00:49.645Z,99093.18
2023-01-11T20:03:21.248Z,99095.09
2023-01-11T20:05:52.893Z,99097.88
2023-01-11T20:08:26.795Z,99099.11
2023-01-11T20:11:05.184Z,99095.98
2023-01-11T20:13:36.952Z,99094.42
2023-01-11T20:16:11.861Z,99093.59
2023-01-11T20:19:04.141Z,99091.76
2023-01-11T20:21:35.756Z,99088.91
2023-01-11T20:24:07.853Z,99089.20
2023-01-11T20:26:39.951Z,99090.23
2023-01-11T20:29:11.620Z,99087.45
2023-01-11T20:31:43.458Z,99088.12
2023-01-11T20:34:17.068Z,99083.63
2023-01-11T20:36:49.511Z,99081.89
2023-01-11T20:39:21.171Z,99083.45
2023-01-11T20:41:56.180Z,99083.27
2023-01-11T20:44:28.263Z,99086.58
2023-01-11T20:47:00.435Z,99085.70
2023-01-11T20:49:35.291Z,99086.21
2023-01-11T20:52:07.073Z,99083.08
2023-01-11T20:54:38.774Z,99084.97
2023-01-11T20:57:12.726Z,99083.05
2023-01-11T20:59:44.385Z,99087.74
2023-01-11T21:02:16.861Z,99084.94
2023-01-11T21:04:49.286Z,99088.06
2023-01-11T21:07:20.935Z,99086.64
2023-01-11T21:09:52.611Z,99085.75
2023-01-11T21:12:27.103Z,99085.04
2023-01-11T21:14:58.643Z,99084.10
2023-01-11T21:17:33.198Z,99086.65
2023-01-11T21:20:05.636Z,99086.99
2023-01-11T21:22:37.257Z,99085.95
2023-01-11T21:25:09.196Z,99083.64
2023-01-11T21:27:47.884Z,99085.20
2023-01-11T21:30:21.820Z,99084.65
2023-01-11T21:32:54.762Z,99088.11
2023-01-11T21:35:27.258Z,99083.21
2023-01-11T21:37:58.923Z,99083.70
2023-01-11T21:40:32.000Z,99088.73
2023-01-11T21:43:03.721Z,99086.11
2023-01-11T21:45:35.314Z,99089.05
2023-01-11T21:48:07.020Z,99091.59
2023-01-11T21:50:38.679Z,99096.60
2023-01-11T21:53:10.306Z,99096.21
2023-01-11T21:55:42.015Z,99102.10
2023-01-11T21:58:13.910Z,99094.23
2023-01-11T22:00:45.584Z,99095.62
2023-01-11T22:03:17.200Z,99098.55
2023-01-11T22:05:48.866Z,99098.36
2023-01-11T22:08:22.633Z,99102.17
2023-01-11T22:11:02.260Z,99102.84
2023-01-11T22:13:35.699Z,99105.95
2023-01-11T22:16:15.045Z,99109.59
2023-01-11T22:18:48.922Z,99107.82
2023-01-11T22:21:20.954Z,99108.66
2023-01-11T22:23:58.130Z,99114.02
2023-01-11T22:26:34.920Z,99112.60
2023-01-11T22:29:12.564Z,99108.54
2023-01-11T22:31:55.099Z,99118.56
2023-01-11T22:34:28.262Z,99120.95
2023-01-11T22:37:04.813Z,99121.95
2023-01-11T22:39:40.802Z,99121.39
2023-01-11T22:42:12.381Z,99126.02
2023-01-11T22:44:47.229Z,99127.88
2023-01-11T22:47:18.842Z,99125.77
2023-01-11T22:49:56.001Z,99124.14
2023-01-11T22:52:27.565Z,99126.03
2023-01-11T22:54:59.254Z,99121.80
2023-01-11T22:57:32.170Z,99120.38
2023-01-11T23:00:06.612Z,99119.99
2023-01-11T23:02:38.380Z,99124.66
2023-01-11T23:05:10.241Z,99125.81
2023-01-11T23:07:43.781Z,99130.29
2023-01-11T23:10:15.891Z,99130.09
2023-01-11T23:13:06.396Z,99129.19
2023-01-11T23:15:39.396Z,99124.60
2023-01-11T23:18:12.053Z,99124.73
2023-01-11T23:20:43.667Z,99125.73
2023-01-11T23:23:17.732Z,99126.23
2023-01-11T23:25:54.599Z,99123.20
2023-01-11T23:28:29.977Z,99124.02
2023-01-11T23:31:12.617Z,99125.01
2023-01-11T23:33:46.179Z,99123.92
2023-01-11T23:36:23.108Z,99123.86
2023-01-11T23:38:54.634Z,99125.03
2023-01-11T23:41:46.736Z,99122.52
2023-01-11T23:44:18.739Z,99122.08
2023-01-11T23:47:09.482Z,99127.94
2023-01-11T23:49:45.288Z,99122.52
2023-01-11T23:52:18.034Z,99125.23
2023-01-11T23:54:49.998Z,99122.60
2023-01-11T23:57:22.594Z,99122.74
2023-01-11T23:59:54.260Z,99122.35
